createdAt,value
2022-11-24T00:00:06.806Z,81.21
2022-11-24T00:02:55.050Z,81.05
2022-11-24T00:05:24.012Z,81.04
2022-11-24T00:07:52.313Z,80.87
2022-11-24T00:10:20.643Z,81.00
2022-11-24T00:12:48.926Z,80.66
2022-11-24T00:15:17.190Z,80.99
2022-11-24T00:17:45.549Z,80.98
2022-11-24T00:20:13.814Z,80.88
2022-11-24T00:22:42.349Z,81.25
2022-11-24T00:25:10.626Z,81.05
2022-11-24T00:27:38.817Z,81.19
2022-11-24T00:30:07.596Z,80.92
2022-11-24T00:32:36.090Z,80.97
2022-11-24T00:35:04.865Z,80.72
2022-11-24T00:37:33.071Z,80.71
2022-11-24T00:40:01.338Z,80.69
2022-11-24T00:42:29.882Z,80.89
2022-11-24T00:44:58.332Z,80.49
2022-11-24T00:47:29.092Z,80.69
2022-11-24T00:49:57.331Z,80.60
2022-11-24T00:52:25.527Z,80.69
2022-11-24T00:54:53.915Z,80.98
2022-11-24T00:57:22.257Z,80.56
2022-11-24T00:59:50.601Z,80.63
2022-11-24T01:02:18.749Z,80.78
2022-11-24T01:04:48.468Z,80.26
2022-11-24T01:07:16.361Z,80.39
2022-11-24T01:09:46.903Z,80.54
2022-11-24T01:12:15.572Z,80.33
2022-11-24T01:14:44.186Z,80.28
2022-11-24T01:17:12.350Z,80.53
2022-11-24T01:19:43.705Z,80.60
2022-11-24T01:22:13.812Z,80.64
2022-11-24T01:24:42.368Z,80.54
2022-11-24T01:27:13.885Z,80.40
2022-11-24T01:29:43.011Z,80.58
2022-11-24T01:32:11.193Z,80.39
2022-11-24T01:34:39.455Z,80.15
2022-11-24T01:37:07.602Z,80.07
2022-11-24T01:39:35.960Z,80.12
2022-11-24T01:42:04.556Z,80.09
2022-11-24T01:44:33.183Z,80.16
2022-11-24T01:47:19.987Z,80.22
2022-11-24T01:49:56.138Z,79.93
2022-11-24T01:52:47.446Z,79.56
2022-11-24T01:55:21.671Z,79.41
2022-11-24T01:57:58.689Z,79.71
2022-11-24T02:00:27.041Z,79.49
2022-11-24T02:02:56.477Z,79.52
2022-11-24T02:05:38.479Z,79.75
2022-11-24T02:08:13.206Z,79.47
2022-11-24T02:10:43.024Z,79.61
2022-11-24T02:13:13.390Z,79.43
2022-11-24T02:15:42.273Z,79.81
2022-11-24T02:18:10.739Z,79.52
2022-11-24T02:20:39.121Z,79.66
2022-11-24T02:23:38.047Z,79.72
2022-11-24T02:26:37.306Z,79.53
2022-11-24T02:29:05.386Z,79.40
2022-11-24T02:31:35.121Z,79.36
2022-11-24T02:34:03.645Z,79.92
2022-11-24T02:36:31.849Z,79.83
2022-11-24T02:39:00.070Z,79.77
2022-11-24T02:41:29.446Z,79.83
2022-11-24T02:44:02.059Z,79.95
2022-11-24T02:46:30.530Z,80.04
2022-11-24T02:48:58.788Z,79.88
2022-11-24T02:51:27.002Z,79.80
2022-11-24T02:53:55.369Z,79.74
2022-11-24T02:56:23.577Z,79.97
2022-11-24T02:58:52.001Z,79.96
2022-11-24T03:01:20.519Z,79.60
2022-11-24T03:03:48.907Z,79.70
2022-11-24T03:06:17.132Z,79.62
2022-11-24T03:08:45.558Z,79.78
2022-11-24T03:11:13.760Z,79.50
2022-11-24T03:13:42.060Z,79.63
2022-11-24T03:16:10.729Z,79.28
2022-11-24T03:18:39.406Z,79.86
2022-11-24T03:21:10.783Z,79.64
2022-11-24T03:23:39.195Z,79.94
2022-11-24T03:26:13.108Z,79.67
2022-11-24T03:28:41.771Z,79.90
2022-11-24T03:31:10.957Z,79.59
2022-11-24T03:33:39.895Z,79.83
2022-11-24T03:36:08.699Z,79.96
2022-11-24T03:38:36.960Z,79.70
2022-11-24T03:41:05.296Z,79.71
2022-11-24T03:43:34.524Z,79.62
2022-11-24T03:46:05.064Z,79.78
2022-11-24T03:48:33.397Z,79.71
2022-11-24T03:51:03.510Z,79.94
2022-11-24T03:53:34.140Z,80.05
2022-11-24T03:56:03.076Z,79.87
2022-11-24T03:58:31.647Z,80.36
2022-11-24T04:01:00.024Z,80.32
2022-11-24T04:03:28.346Z,80.73
2022-11-24T04:05:56.722Z,80.77
2022-11-24T04:08:24.992Z,80.58
2022-11-24T04:10:54.761Z,80.56
2022-11-24T04:13:25.021Z,80.48
2022-11-24T04:15:53.807Z,80.38
2022-11-24T04:18:22.377Z,79.98
2022-11-24T04:20:51.688Z,80.00
2022-11-24T04:23:20.418Z,80.43
2022-11-24T04:25:49.105Z,80.92
2022-11-24T04:28:17.887Z,80.47
2022-11-24T04:31:05.737Z,80.50
2022-11-24T04:33:36.012Z,80.47
2022-11-24T04:36:09.851Z,80.73
2022-11-24T04:39:19.899Z,80.76
2022-11-24T04:41:28.250Z,80.88
2022-11-24T04:44:01.048Z,80.87
2022-11-24T04:46:40.020Z,80.54
2022-11-24T04:49:13.488Z,80.43
2022-11-24T04:51:49.203Z,80.49
2022-11-24T04:54:19.166Z,80.28
2022-11-24T04:56:58.016Z,80.09
2022-11-24T04:59:26.853Z,80.29
2022-11-24T05:01:59.786Z,80.43
2022-11-24T05:04:34.929Z,80.58
2022-11-24T05:07:21.869Z,80.44
2022-11-24T05:10:13.300Z,80.74
2022-11-24T05:12:49.953Z,80.76
2022-11-24T05:15:22.133Z,80.70
2022-11-24T05:17:51.622Z,80.50
2022-11-24T05:20:22.887Z,80.48
2022-11-24T05:22:51.844Z,80.42
2022-11-24T05:25:20.751Z,80.22
2022-11-24T05:27:48.915Z,80.36
2022-11-24T05:30:18.070Z,80.34
2022-11-24T05:32:49.857Z,79.97
2022-11-24T05:35:19.162Z,79.84
2022-11-24T05:37:49.429Z,80.15
2022-11-24T05:40:19.632Z,80.24
2022-11-24T05:42:51.915Z,79.89
2022-11-24T05:45:29.576Z,80.20
2022-11-24T05:48:15.783Z,80.11
2022-11-24T05:50:44.412Z,80.36
2022-11-24T05:53:14.277Z,80.26
2022-11-24T05:55:43.693Z,80.13
2022-11-24T05:58:13.138Z,80.09
2022-11-24T06:00:46.463Z,80.11
2022-11-24T06:03:15.384Z,80.09
2022-11-24T06:05:47.810Z,80.14
2022-11-24T06:08:20.930Z,80.01
2022-11-24T06:10:50.733Z,80.06
2022-11-24T06:13:20.772Z,80.09
2022-11-24T06:15:50.822Z,79.93
2022-11-24T06:18:19.637Z,80.02
2022-11-24T06:21:09.221Z,80.16
2022-11-24T06:23:41.006Z,79.98
2022-11-24T06:26:09.804Z,80.09
2022-11-24T06:28:39.529Z,80.13
2022-11-24T06:31:08.191Z,80.42
2022-11-24T06:33:41.155Z,80.49
2022-11-24T06:36:13.266Z,80.43
2022-11-24T06:38:41.547Z,80.55
2022-11-24T06:41:15.530Z,80.48
2022-11-24T06:43:45.116Z,80.42
2022-11-24T06:46:21.357Z,80.31
2022-11-24T06:48:53.953Z,80.19
2022-11-24T06:51:21.818Z,80.44
2022-11-24T06:53:49.752Z,80.10
2022-11-24T06:56:22.445Z,80.07
2022-11-24T06:58:52.563Z,80.14
2022-11-24T07:01:24.271Z,79.98
2022-11-24T07:03:54.434Z,79.98
2022-11-24T07:06:24.101Z,80.00
2022-11-24T07:08:52.752Z,80.01
2022-11-24T07:11:22.853Z,80.11
2022-11-24T07:13:59.638Z,79.97
2022-11-24T07:16:28.700Z,79.79
2022-11-24T07:18:57.503Z,79.61
2022-11-24T07:21:27.764Z,79.39
2022-11-24T07:24:01.732Z,79.20
2022-11-24T07:26:39.346Z,79.27
2022-11-24T07:29:08.178Z,79.24
2022-11-24T07:31:54.886Z,79.13
2022-11-24T07:34:25.000Z,79.21
2022-11-24T07:37:05.472Z,79.80
2022-11-24T07:39:37.260Z,79.81
2022-11-24T07:42:18.604Z,79.45
2022-11-24T07:45:35.750Z,79.48
2022-11-24T07:48:15.450Z,79.27
2022-11-24T07:50:44.554Z,79.22
2022-11-24T07:53:12.837Z,79.37
2022-11-24T07:55:41.613Z,79.31
2022-11-24T07:58:09.801Z,79.36
2022-11-24T08:00:43.630Z,79.36
2022-11-24T08:03:13.058Z,79.31
2022-11-24T08:06:00.680Z,79.14
2022-11-24T08:08:33.430Z,79.14
2022-11-24T08:11:06.336Z,79.09
2022-11-24T08:13:37.864Z,79.08
2022-11-24T08:16:07.647Z,79.16
2022-11-24T08:18:38.769Z,79.05
2022-11-24T08:21:07.491Z,78.98
2022-11-24T08:23:35.383Z,78.74
2022-11-24T08:26:07.275Z,78.47
2022-11-24T08:28:36.527Z,78.42
2022-11-24T08:31:16.204Z,78.21
2022-11-24T08:33:47.033Z,78.06
2022-11-24T08:36:22.587Z,78.01
2022-11-24T08:38:56.589Z,78.17
2022-11-24T08:41:29.163Z,77.78
2022-11-24T08:43:59.033Z,77.75
2022-11-24T08:46:27.070Z,77.79
2022-11-24T08:48:56.221Z,77.68
2022-11-24T08:51:26.322Z,77.76
2022-11-24T08:53:56.878Z,77.87
2022-11-24T08:56:29.686Z,77.46
2022-11-24T08:59:00.811Z,77.31
2022-11-24T09:01:33.035Z,77.21
2022-11-24T09:04:02.124Z,77.30
2022-11-24T09:06:32.785Z,77.04
2022-11-24T09:09:01.792Z,76.90
2022-11-24T09:11:31.495Z,76.86
2022-11-24T09:14:08.383Z,76.84
2022-11-24T09:16:44.515Z,77.00
2022-11-24T09:19:12.864Z,76.81
2022-11-24T09:21:41.606Z,76.88
2022-11-24T09:24:10.550Z,76.70
2022-11-24T09:26:43.061Z,76.87
2022-11-24T09:29:16.419Z,76.76
2022-11-24T09:31:44.701Z,76.57
2022-11-24T09:34:17.710Z,76.53
2022-11-24T09:36:45.810Z,76.20
2022-11-24T09:39:14.110Z,76.36
2022-11-24T09:42:02.062Z,76.11
2022-11-24T09:44:42.488Z,75.96
2022-11-24T09:47:22.518Z,75.99
2022-11-24T09:50:04.193Z,76.02
2022-11-24T09:53:02.135Z,75.66
2022-11-24T09:55:49.828Z,75.20
2022-11-24T09:58:48.625Z,74.62
2022-11-24T10:01:28.715Z,74.48
2022-11-24T10:04:02.619Z,74.26
2022-11-24T10:06:47.635Z,73.83
2022-11-24T10:09:40.850Z,73.96
2022-11-24T10:12:21.864Z,73.71
2022-11-24T10:15:19.299Z,73.52
2022-11-24T10:18:17.261Z,73.64
2022-11-24T10:21:04.226Z,73.11
2022-11-24T10:23:47.728Z,73.46
2022-11-24T10:26:30.064Z,72.94
2022-11-24T10:28:58.116Z,72.97
2022-11-24T10:31:41.950Z,72.90
2022-11-24T10:34:21.171Z,73.59
2022-11-24T10:37:11.340Z,73.14
2022-11-24T10:39:51.515Z,72.97
2022-11-24T10:42:31.757Z,72.97
2022-11-24T10:45:11.861Z,73.12
2022-11-24T10:47:43.444Z,72.60
2022-11-24T10:50:43.868Z,72.19
2022-11-24T10:53:16.835Z,72.12
2022-11-24T10:55:57.600Z,71.89
2022-11-24T10:58:37.315Z,71.73
2022-11-24T11:01:15.563Z,71.64
2022-11-24T11:03:56.909Z,71.31
2022-11-24T11:06:32.188Z,71.34
2022-11-24T11:09:07.339Z,71.50
2022-11-24T11:11:36.918Z,71.55
2022-11-24T11:14:13.260Z,71.61
2022-11-24T11:16:55.808Z,71.53
2022-11-24T11:19:49.487Z,71.92
2022-11-24T11:22:24.252Z,71.41
2022-11-24T11:25:20.119Z,71.32
2022-11-24T11:27:49.764Z,71.48
2022-11-24T11:36:16.900Z,71.67
2022-11-24T11:38:47.053Z,71.63
2022-11-24T11:41:22.404Z,71.73
2022-11-24T11:43:56.812Z,71.36
2022-11-24T11:46:32.816Z,71.54
2022-11-24T11:49:00.832Z,71.53
2022-11-24T11:55:14.699Z,71.71
2022-11-24T11:58:01.783Z,71.92
2022-11-24T12:00:33.619Z,72.16
2022-11-24T12:03:16.688Z,71.98
2022-11-24T12:05:58.955Z,71.81
2022-11-24T12:09:18.046Z,71.97
2022-11-24T12:12:03.759Z,71.84
2022-11-24T12:14:44.738Z,71.77
2022-11-24T12:17:53.101Z,71.95
2022-11-24T12:20:39.889Z,72.02
2022-11-24T12:23:33.115Z,72.06
2022-11-24T12:26:15.280Z,71.79
2022-11-24T12:28:58.388Z,72.03
2022-11-24T12:31:45.827Z,72.41
2022-11-24T12:34:39.049Z,71.94
2022-11-24T12:37:36.344Z,72.40
2022-11-24T12:40:24.013Z,72.14
2022-11-24T12:43:24.853Z,71.73
2022-11-24T12:46:19.785Z,71.57
2022-11-24T12:49:06.406Z,71.52
2022-11-24T12:51:46.408Z,71.41
2022-11-24T12:54:17.670Z,71.42
2022-11-24T12:57:07.889Z,71.12
2022-11-24T12:59:56.528Z,71.17
2022-11-24T13:03:03.674Z,70.87
2022-11-24T13:05:59.545Z,71.47
2022-11-24T13:08:28.930Z,71.44
2022-11-24T13:11:16.609Z,71.23
2022-11-24T13:13:59.716Z,71.35
2022-11-24T13:16:38.745Z,71.26
2022-11-24T13:19:20.178Z,71.37
2022-11-24T13:21:56.559Z,71.23
2022-11-24T13:24:36.914Z,71.54
2022-11-24T13:27:18.895Z,71.59
2022-11-24T13:29:48.384Z,71.89
2022-11-24T13:32:19.753Z,72.01
2022-11-24T13:34:49.765Z,71.85
2022-11-24T13:37:31.898Z,71.82
2022-11-24T13:40:23.787Z,71.84
2022-11-24T13:42:54.369Z,71.53
2022-11-24T13:45:53.007Z,71.82
2022-11-24T13:48:21.951Z,71.70
2022-11-24T13:50:50.594Z,71.98
2022-11-24T13:53:42.564Z,72.25
2022-11-24T13:56:13.569Z,72.44
2022-11-24T13:58:46.253Z,72.50
2022-11-24T14:01:19.479Z,72.23
2022-11-24T14:04:28.001Z,72.15
2022-11-24T14:06:46.361Z,72.58
2022-11-24T14:09:26.484Z,72.86
2022-11-24T14:12:12.809Z,73.06
2022-11-24T14:14:42.034Z,72.98
2022-11-24T14:17:20.165Z,72.94
2022-11-24T14:19:50.323Z,73.09
2022-11-24T14:22:21.669Z,73.34
2022-11-24T14:24:54.780Z,73.04
2022-11-24T14:27:29.706Z,73.04
2022-11-24T14:30:02.252Z,73.40
2022-11-24T14:32:30.204Z,73.30
2022-11-24T14:34:58.027Z,73.34
2022-11-24T14:37:26.069Z,73.61
2022-11-24T14:39:56.333Z,73.85
2022-11-24T14:42:25.808Z,73.88
2022-11-24T14:44:55.824Z,73.77
2022-11-24T14:47:31.292Z,73.58
2022-11-24T14:50:22.984Z,73.91
2022-11-24T14:52:56.650Z,73.85
2022-11-24T14:55:26.121Z,74.14
2022-11-24T14:57:56.692Z,74.34
2022-11-24T15:00:24.792Z,74.60
2022-11-24T15:03:01.630Z,74.62
2022-11-24T15:05:51.534Z,74.72
2022-11-24T15:08:19.865Z,75.09
2022-11-24T15:10:48.329Z,74.82
2022-11-24T15:13:22.797Z,74.58
2022-11-24T15:16:01.811Z,74.72
2022-11-24T15:18:38.966Z,74.96
2022-11-24T15:21:07.079Z,74.92
2022-11-24T15:23:36.254Z,74.95
2022-11-24T15:26:04.227Z,74.99
2022-11-24T15:28:33.459Z,75.01
2022-11-24T15:31:04.157Z,75.24
2022-11-24T15:33:32.224Z,75.73
2022-11-24T15:36:00.158Z,75.34
2022-11-24T15:38:27.922Z,75.56
2022-11-24T15:41:00.225Z,75.83
2022-11-24T15:43:38.682Z,75.51
2022-11-24T15:46:09.015Z,75.64
2022-11-24T15:48:37.095Z,75.84
2022-11-24T15:51:13.825Z,75.85
2022-11-24T15:53:48.071Z,75.98
2022-11-24T15:56:36.935Z,76.26
2022-11-24T15:59:04.907Z,75.74
2022-11-24T16:01:34.449Z,75.81
2022-11-24T16:04:02.767Z,75.91
2022-11-24T16:06:31.018Z,76.35
2022-11-24T16:08:59.164Z,76.10
2022-11-24T16:11:27.566Z,76.48
2022-11-24T16:13:55.462Z,76.73
2022-11-24T16:16:25.212Z,76.50
2022-11-24T16:18:54.053Z,76.19
2022-11-24T16:21:21.893Z,76.24
2022-11-24T16:23:49.647Z,76.46
2022-11-24T16:26:17.586Z,76.56
2022-11-24T16:28:46.046Z,76.59
2022-11-24T16:31:16.091Z,76.44
2022-11-24T16:33:47.769Z,76.82
2022-11-24T16:36:15.503Z,76.56
2022-11-24T16:38:43.758Z,76.72
2022-11-24T16:41:11.956Z,76.79
2022-11-24T16:43:40.070Z,76.84
2022-11-24T16:46:16.069Z,77.03
2022-11-24T16:48:45.739Z,77.13
2022-11-24T16:51:14.347Z,76.96
2022-11-24T16:53:42.971Z,77.22
2022-11-24T16:56:10.876Z,77.64
2022-11-24T16:58:40.245Z,77.54
2022-11-24T17:01:13.885Z,77.30
2022-11-24T17:03:42.202Z,77.42
2022-11-24T17:06:12.339Z,77.43
2022-11-24T17:08:41.423Z,77.67
2022-11-24T17:11:23.828Z,77.28
2022-11-24T17:13:52.152Z,77.54
2022-11-24T17:16:22.284Z,77.69
2022-11-24T17:18:50.495Z,77.65
2022-11-24T17:21:23.920Z,77.55
2022-11-24T17:23:56.893Z,77.27
2022-11-24T17:26:25.530Z,77.73
2022-11-24T17:28:54.120Z,77.56
2022-11-24T17:31:24.432Z,77.33
2022-11-24T17:33:57.845Z,77.53
2022-11-24T17:36:27.204Z,77.72
2022-11-24T17:38:55.055Z,77.69
2022-11-24T17:41:23.386Z,77.94
2022-11-24T17:43:58.187Z,77.67
2022-11-24T17:46:27.913Z,77.64
2022-11-24T17:48:56.055Z,78.01
2022-11-24T17:51:25.514Z,77.61
2022-11-24T17:53:54.217Z,77.74
2022-11-24T17:56:24.583Z,77.87
2022-11-24T17:58:58.006Z,77.90
2022-11-24T18:01:28.609Z,77.95
2022-11-24T18:03:57.251Z,78.01
2022-11-24T18:06:25.811Z,78.04
2022-11-24T18:08:54.217Z,78.07
2022-11-24T18:11:30.626Z,77.99
2022-11-24T18:14:02.524Z,78.02
2022-11-24T18:16:33.072Z,78.26
2022-11-24T18:19:11.455Z,78.08
2022-11-24T18:21:41.346Z,77.78
2022-11-24T18:24:11.273Z,77.92
2022-11-24T18:26:40.669Z,78.21
2022-11-24T18:29:09.361Z,77.97
2022-11-24T18:31:38.062Z,78.28
2022-11-24T18:34:06.273Z,78.05
2022-11-24T18:36:34.988Z,78.33
2022-11-24T18:39:08.907Z,78.30
2022-11-24T18:41:36.913Z,78.46
2022-11-24T18:44:08.239Z,78.31
2022-11-24T18:46:37.932Z,78.23
2022-11-24T18:49:07.132Z,78.34
2022-11-24T18:51:36.055Z,78.23
2022-11-24T18:54:05.868Z,77.66
2022-11-24T18:56:34.969Z,77.99
2022-11-24T18:59:02.746Z,78.35
2022-11-24T19:01:31.000Z,78.20
2022-11-24T19:04:01.785Z,78.25
2022-11-24T19:06:33.610Z,78.28
2022-11-24T19:09:07.893Z,78.01
2022-11-24T19:11:37.895Z,78.11
2022-11-24T19:14:07.148Z,78.17
2022-11-24T19:16:35.135Z,77.87
2022-11-24T19:19:03.987Z,78.31
2022-11-24T19:21:33.824Z,78.34
2022-11-24T19:24:05.422Z,78.42
2022-11-24T19:26:37.074Z,78.43
2022-11-24T19:29:06.353Z,78.23
2022-11-24T19:31:35.153Z,78.44
2022-11-24T19:34:03.590Z,78.41
2022-11-24T19:36:33.621Z,78.28
2022-11-24T19:39:05.095Z,78.51
2022-11-24T19:41:33.648Z,78.45
2022-11-24T19:44:01.389Z,78.58
2022-11-24T19:46:30.298Z,78.52
2022-11-24T19:49:02.321Z,78.46
2022-11-24T19:51:35.107Z,78.52
2022-11-24T19:54:04.846Z,78.58
2022-11-24T19:56:36.220Z,78.49
2022-11-24T19:59:06.012Z,78.90
2022-11-24T20:01:39.881Z,78.82
2022-11-24T20:04:11.416Z,78.86
2022-11-24T20:06:41.901Z,78.80
2022-11-24T20:09:12.271Z,78.59
2022-11-24T20:11:41.193Z,79.01
2022-11-24T20:14:12.145Z,78.78
2022-11-24T20:16:40.685Z,79.03
2022-11-24T20:19:12.399Z,79.04
2022-11-24T20:21:41.718Z,78.94
2022-11-24T20:24:15.715Z,79.23
2022-11-24T20:26:50.084Z,79.22
2022-11-24T20:29:19.171Z,78.83
2022-11-24T20:31:49.934Z,78.78
2022-11-24T20:34:18.999Z,78.68
2022-11-24T20:36:47.725Z,78.65
2022-11-24T20:39:20.175Z,78.70
2022-11-24T20:41:48.052Z,79.25
2022-11-24T20:44:17.856Z,79.07
2022-11-24T20:46:46.694Z,79.05
2022-11-24T20:49:16.847Z,79.29
2022-11-24T20:51:47.892Z,78.95
2022-11-24T20:54:18.148Z,79.09
2022-11-24T20:56:47.466Z,78.82
2022-11-24T20:59:18.459Z,78.98
2022-11-24T21:01:47.906Z,78.79
2022-11-24T21:04:17.065Z,78.81
2022-11-24T21:06:45.314Z,78.64
2022-11-24T21:09:13.105Z,78.54
2022-11-24T21:11:41.231Z,78.81
2022-11-24T21:14:10.397Z,78.57
2022-11-24T21:16:40.169Z,78.85
2022-11-24T21:19:13.075Z,79.01
2022-11-24T21:21:42.650Z,78.84
2022-11-24T21:24:18.408Z,78.94
2022-11-24T21:26:51.226Z,78.66
2022-11-24T21:29:22.180Z,78.78
2022-11-24T21:31:50.132Z,79.26
2022-11-24T21:34:19.458Z,79.00
2022-11-24T21:36:47.986Z,78.85
2022-11-24T21:39:16.310Z,78.90
2022-11-24T21:41:44.489Z,78.92
2022-11-24T21:44:13.600Z,79.24
2022-11-24T21:46:49.704Z,79.25
2022-11-24T21:49:22.085Z,79.02
2022-11-24T21:51:55.375Z,79.07
2022-11-24T21:54:23.946Z,78.89
2022-11-24T21:56:53.219Z,78.95
2022-11-24T21:59:21.917Z,79.04
2022-11-24T22:01:49.939Z,79.43
2022-11-24T22:04:17.893Z,79.00
2022-11-24T22:06:45.594Z,79.15
2022-11-24T22:09:17.699Z,79.24
2022-11-24T22:11:46.526Z,79.45
2022-11-24T22:14:14.465Z,79.17
2022-11-24T22:16:42.292Z,78.93
2022-11-24T22:19:10.256Z,78.71
2022-11-24T22:21:38.130Z,78.66
2022-11-24T22:24:06.080Z,78.37
2022-11-24T22:26:33.746Z,79.06
2022-11-24T22:29:01.770Z,78.91
2022-11-24T22:31:32.221Z,78.88
2022-11-24T22:34:00.943Z,79.02
2022-11-24T22:36:30.234Z,79.24
2022-11-24T22:39:04.090Z,79.11
2022-11-24T22:41:34.046Z,78.88
2022-11-24T22:44:02.496Z,78.76
2022-11-24T22:46:31.310Z,78.92
2022-11-24T22:49:00.845Z,79.02
2022-11-24T22:51:32.492Z,78.76
2022-11-24T22:54:02.638Z,79.05
2022-11-24T22:56:33.597Z,78.82
2022-11-24T22:59:02.591Z,79.01
2022-11-24T23:01:33.853Z,79.23
2022-11-24T23:04:03.731Z,79.24
2022-11-24T23:06:33.120Z,79.35
2022-11-24T23:09:02.712Z,79.65
2022-11-24T23:11:37.661Z,79.66
2022-11-24T23:14:08.749Z,79.65
2022-11-24T23:16:36.802Z,79.37
2022-11-24T23:19:05.194Z,79.63
2022-11-24T23:21:36.119Z,79.71
2022-11-24T23:24:04.547Z,79.62
2022-11-24T23:26:36.574Z,80.39
2022-11-24T23:29:05.680Z,80.17
2022-11-24T23:31:33.994Z,80.46
2022-11-24T23:34:03.510Z,80.35
2022-11-24T23:36:32.698Z,80.12
2022-11-24T23:39:10.992Z,79.87
2022-11-24T23:41:39.144Z,80.03
2022-11-24T23:44:07.713Z,80.38
2022-11-24T23:46:35.577Z,80.09
2022-11-24T23:49:03.622Z,79.79
2022-11-24T23:51:32.924Z,79.74
2022-11-24T23:56:46.776Z,80.06
2022-11-24T23:59:17.384Z,80.23
